createdAt,value
2018-06-04T00:01:25.703Z,22.40
2018-06-04T00:03:53.764Z,22.44
2018-06-04T00:06:21.940Z,22.30
2018-06-04T00:08:50.097Z,22.31
2018-06-04T00:11:18.363Z,22.29
2018-06-04T00:13:46.430Z,22.20
2018-06-04T00:16:14.757Z,22.18
2018-06-04T00:18:42.809Z,22.15
2018-06-04T00:21:11.048Z,22.21
2018-06-04T00:23:39.133Z,22.16
2018-06-04T00:26:07.410Z,22.24
2018-06-04T00:28:35.653Z,22.23
2018-06-04T00:31:03.925Z,22.18
2018-06-04T00:33:32.475Z,22.14
2018-06-04T00:36:00.694Z,22.04
2018-06-04T00:38:28.956Z,22.05
2018-06-04T00:40:57.049Z,22.03
2018-06-04T00:43:25.169Z,21.89
2018-06-04T00:45:53.255Z,21.92
2018-06-04T00:48:21.498Z,21.97
2018-06-04T00:50:49.697Z,21.98
2018-06-04T00:53:17.892Z,22.00
2018-06-04T00:55:56.952Z,22.03
2018-06-04T00:58:25.045Z,21.97
2018-06-04T01:00:53.758Z,21.90
2018-06-04T01:03:22.157Z,21.84
2018-06-04T01:05:50.373Z,21.91
2018-06-04T01:08:18.702Z,21.92
2018-06-04T01:10:46.869Z,21.95
2018-06-04T01:13:21.724Z,21.97
2018-06-04T01:15:50.136Z,21.99
2018-06-04T01:18:18.307Z,22.04
2018-06-04T01:20:46.601Z,21.99
2018-06-04T01:23:14.726Z,21.94
2018-06-04T01:25:42.993Z,21.92
2018-06-04T01:28:11.113Z,21.95
2018-06-04T01:30:39.247Z,21.81
2018-06-04T01:33:07.588Z,21.67
2018-06-04T01:35:35.685Z,21.62
2018-06-04T01:38:03.781Z,21.56
2018-06-04T01:40:32.096Z,21.65
2018-06-04T01:43:00.263Z,21.54
2018-06-04T01:45:28.556Z,21.60
2018-06-04T01:47:56.738Z,21.73
2018-06-04T01:50:24.914Z,21.74
2018-06-04T01:52:53.165Z,21.79
2018-06-04T01:55:21.273Z,21.93
2018-06-04T01:57:49.449Z,21.92
2018-06-04T02:00:17.557Z,21.89
2018-06-04T02:02:45.737Z,21.76
2018-06-04T02:05:13.918Z,21.82
2018-06-04T02:07:42.282Z,22.01
2018-06-04T02:10:10.523Z,21.97
2018-06-04T02:12:38.782Z,21.51
2018-06-04T02:15:06.932Z,21.43
2018-06-04T02:17:35.102Z,21.46
2018-06-04T02:20:03.335Z,21.57
2018-06-04T02:22:31.600Z,21.69
2018-06-04T02:24:59.853Z,21.76
2018-06-04T02:27:28.161Z,21.84
2018-06-04T02:29:56.292Z,21.74
2018-06-04T02:32:24.522Z,21.67
2018-06-04T02:34:53.200Z,21.66
2018-06-04T02:37:21.371Z,21.49
2018-06-04T02:39:49.685Z,21.41
2018-06-04T02:42:17.834Z,21.33
2018-06-04T02:44:46.182Z,21.25
2018-06-04T02:47:14.462Z,21.28
2018-06-04T02:49:42.780Z,21.19
2018-06-04T02:52:11.057Z,21.22
2018-06-04T02:54:39.522Z,21.42
2018-06-04T02:57:07.769Z,21.61
2018-06-04T02:59:36.015Z,21.78
2018-06-04T03:02:04.252Z,21.76
2018-06-04T03:04:33.077Z,21.78
2018-06-04T03:07:01.353Z,21.88
2018-06-04T03:09:29.495Z,21.70
2018-06-04T03:11:57.629Z,21.55
2018-06-04T03:14:26.121Z,21.46
2018-06-04T03:16:54.324Z,21.55
2018-06-04T03:19:22.826Z,21.62
2018-06-04T03:21:51.124Z,21.65
2018-06-04T03:24:19.422Z,21.70
2018-06-04T03:26:47.741Z,21.62
2018-06-04T03:29:16.496Z,21.45
2018-06-04T03:31:45.068Z,21.36
2018-06-04T03:34:13.283Z,21.29
2018-06-04T03:36:41.512Z,21.21
2018-06-04T03:39:09.600Z,21.23
2018-06-04T03:41:37.705Z,21.27
2018-06-04T03:44:06.029Z,21.26
2018-06-04T03:46:34.192Z,21.30
2018-06-04T03:49:02.529Z,21.31
2018-06-04T03:51:30.767Z,21.36
2018-06-04T03:53:59.135Z,21.20
2018-06-04T03:56:27.413Z,20.98
2018-06-04T03:58:55.564Z,21.06
2018-06-04T04:01:23.747Z,21.16
2018-06-04T04:03:51.941Z,20.89
2018-06-04T04:06:20.076Z,20.86
2018-06-04T04:08:48.209Z,20.88
2018-06-04T04:11:16.424Z,20.90
2018-06-04T04:13:44.504Z,21.17
2018-06-04T04:16:12.585Z,21.07
2018-06-04T04:18:40.739Z,21.15
2018-06-04T04:21:08.865Z,21.22
2018-06-04T04:23:37.057Z,21.27
2018-06-04T04:26:05.422Z,21.23
2018-06-04T04:28:33.516Z,21.16
2018-06-04T04:31:01.660Z,20.85
2018-06-04T04:33:29.754Z,20.62
2018-06-04T04:35:58.065Z,20.72
2018-06-04T04:38:26.628Z,20.75
2018-06-04T04:40:54.772Z,20.64
2018-06-04T04:43:22.909Z,20.60
2018-06-04T04:45:51.162Z,20.34
2018-06-04T04:48:19.341Z,20.68
2018-06-04T04:50:47.392Z,20.93
2018-06-04T04:53:15.445Z,21.20
2018-06-04T04:55:43.685Z,21.27
2018-06-04T04:58:11.785Z,21.34
2018-06-04T05:00:40.005Z,21.26
2018-06-04T05:03:08.037Z,21.00
2018-06-04T05:05:36.113Z,21.15
2018-06-04T05:08:04.396Z,21.37
2018-06-04T05:10:32.550Z,21.25
2018-06-04T05:13:00.737Z,21.52
2018-06-04T05:15:29.075Z,21.74
2018-06-04T05:17:57.383Z,21.93
2018-06-04T05:20:25.476Z,21.79
2018-06-04T05:22:53.671Z,21.66
2018-06-04T05:25:21.697Z,21.49
2018-06-04T05:27:49.732Z,21.90
2018-06-04T05:30:18.036Z,22.40
2018-06-04T05:32:46.176Z,22.77
2018-06-04T05:35:14.393Z,23.02
2018-06-04T05:37:42.573Z,23.49
2018-06-04T05:40:10.696Z,23.86
2018-06-04T05:42:38.855Z,24.22
2018-06-04T05:45:07.157Z,24.47
2018-06-04T05:47:35.266Z,24.39
2018-06-04T05:50:03.750Z,24.34
2018-06-04T05:52:31.914Z,24.16
2018-06-04T05:55:00.037Z,24.24
2018-06-04T05:57:28.217Z,24.36
2018-06-04T05:59:56.521Z,24.42
2018-06-04T06:02:24.761Z,24.43
2018-06-04T06:04:52.911Z,24.40
2018-06-04T06:07:21.093Z,24.27
2018-06-04T06:09:49.392Z,24.11
2018-06-04T06:12:17.510Z,23.98
2018-06-04T06:14:45.668Z,24.02
2018-06-04T06:17:13.793Z,24.11
2018-06-04T06:19:42.056Z,24.22
2018-06-04T06:22:10.268Z,24.26
2018-06-04T06:24:38.377Z,24.36
2018-06-04T06:27:06.499Z,24.39
2018-06-04T06:29:34.760Z,24.42
2018-06-04T06:32:03.115Z,24.51
2018-06-04T06:34:31.270Z,24.46
2018-06-04T06:36:59.380Z,24.52
2018-06-04T06:39:27.724Z,24.30
2018-06-04T06:41:55.803Z,24.19
2018-06-04T06:44:24.128Z,24.04
2018-06-04T06:46:52.164Z,23.91
2018-06-04T06:49:20.204Z,23.99
2018-06-04T06:51:48.295Z,23.98
2018-06-04T06:54:16.517Z,23.99
2018-06-04T06:56:44.721Z,24.13
2018-06-04T06:59:12.769Z,24.18
2018-06-04T07:01:40.981Z,24.32
2018-06-04T07:04:09.191Z,24.27
2018-06-04T07:06:37.259Z,24.48
2018-06-04T07:09:07.865Z,24.45
2018-06-04T07:11:35.921Z,24.41
2018-06-04T07:14:04.260Z,24.51
2018-06-04T07:16:32.420Z,24.34
2018-06-04T07:19:00.572Z,24.26
2018-06-04T07:21:28.772Z,24.36
2018-06-04T07:23:56.940Z,24.46
2018-06-04T07:26:25.123Z,24.54
2018-06-04T07:28:53.335Z,24.48
2018-06-04T07:31:21.445Z,24.47
2018-06-04T07:33:49.773Z,24.59
2018-06-04T07:36:17.957Z,24.74
2018-06-04T07:38:46.019Z,24.81
2018-06-04T07:41:14.252Z,24.83
2018-06-04T07:43:42.551Z,24.86
2018-06-04T07:46:10.729Z,24.75
2018-06-04T07:48:38.793Z,24.66
2018-06-04T07:51:06.880Z,24.69
2018-06-04T07:53:34.931Z,24.81
2018-06-04T07:56:03.061Z,24.85
2018-06-04T07:58:31.298Z,24.95
2018-06-04T08:00:59.445Z,25.01
2018-06-04T08:03:27.589Z,25.16
2018-06-04T08:05:55.803Z,25.22
2018-06-04T08:08:23.925Z,25.14
2018-06-04T08:10:52.087Z,25.09
2018-06-04T08:13:20.201Z,25.09
2018-06-04T08:15:48.193Z,24.91
2018-06-04T08:18:16.312Z,25.04
2018-06-04T08:20:44.446Z,25.09
2018-06-04T08:23:12.623Z,24.86
2018-06-04T08:25:40.787Z,24.90
2018-06-04T08:28:08.896Z,24.97
2018-06-04T08:30:36.977Z,24.95
2018-06-04T08:33:05.102Z,24.99
2018-06-04T08:35:33.119Z,25.05
2018-06-04T08:38:01.189Z,25.21
2018-06-04T08:40:29.307Z,25.07
2018-06-04T08:42:57.515Z,24.99
2018-06-04T08:45:25.714Z,25.07
2018-06-04T08:54:17.092Z,25.13
2018-06-04T08:56:45.329Z,25.12
2018-06-04T08:59:13.666Z,25.21
2018-06-04T09:01:41.749Z,25.49
2018-06-04T09:04:09.853Z,25.61
2018-06-04T09:06:37.965Z,25.67
2018-06-04T09:09:06.775Z,25.84
2018-06-04T09:11:34.970Z,25.70
2018-06-04T09:14:03.192Z,25.71
2018-06-04T09:16:31.317Z,25.73
2018-06-04T09:18:59.436Z,25.69
2018-06-04T09:24:18.969Z,25.42
2018-06-04T09:26:47.128Z,25.36
2018-06-04T09:29:15.221Z,25.32
2018-06-04T09:31:43.418Z,25.37
2018-06-04T09:34:11.517Z,25.52
2018-06-04T09:36:39.817Z,25.57
2018-06-04T09:39:08.052Z,25.65
2018-06-04T09:41:36.344Z,25.67
2018-06-04T09:44:04.468Z,25.73
2018-06-04T09:46:32.618Z,25.74
2018-06-04T09:49:00.667Z,25.78
2018-06-04T09:51:28.766Z,25.80
2018-06-04T09:53:57.097Z,25.85
2018-06-04T09:56:25.225Z,25.73
2018-06-04T09:58:53.354Z,25.81
2018-06-04T10:01:21.564Z,25.80
2018-06-04T10:03:49.765Z,25.78
2018-06-04T10:06:17.865Z,25.78
2018-06-04T10:08:45.921Z,25.80
2018-06-04T10:11:14.132Z,25.78
2018-06-04T10:13:42.171Z,25.82
2018-06-04T10:16:10.146Z,25.82
2018-06-04T10:18:38.134Z,25.96
2018-06-04T10:21:06.150Z,25.98
2018-06-04T10:23:34.218Z,25.90
2018-06-04T10:26:02.249Z,26.01
2018-06-04T10:28:30.322Z,26.00
2018-06-04T10:30:58.439Z,26.06
2018-06-04T10:33:26.509Z,26.13
2018-06-04T10:35:54.601Z,25.96
2018-06-04T10:38:22.678Z,25.78
2018-06-04T10:40:50.718Z,25.66
2018-06-04T10:43:18.802Z,25.57
2018-06-04T10:45:46.874Z,25.46
2018-06-04T10:48:15.046Z,25.40
2018-06-04T10:50:43.171Z,25.37
2018-06-04T10:53:11.188Z,25.40
2018-06-04T10:55:39.324Z,25.39
2018-06-04T10:58:07.773Z,25.41
2018-06-04T11:00:36.018Z,25.38
2018-06-04T11:03:04.055Z,25.54
2018-06-04T11:05:32.138Z,25.55
2018-06-04T11:08:00.277Z,25.62
2018-06-04T11:10:28.334Z,25.59
2018-06-04T11:12:56.371Z,25.53
2018-06-04T11:15:24.402Z,25.52
2018-06-04T11:17:52.420Z,25.61
2018-06-04T11:20:20.627Z,25.52
2018-06-04T11:22:48.663Z,25.52
2018-06-04T11:25:16.758Z,25.56
2018-06-04T11:27:44.949Z,25.58
2018-06-04T11:30:13.112Z,25.62
2018-06-04T11:32:41.255Z,25.73
2018-06-04T11:35:09.313Z,25.70
2018-06-04T11:37:37.492Z,25.73
2018-06-04T11:40:05.502Z,25.79
2018-06-04T11:42:33.567Z,25.78
2018-06-04T11:45:01.632Z,25.67
2018-06-04T11:47:29.791Z,25.78
2018-06-04T11:49:57.819Z,25.83
2018-06-04T11:52:25.853Z,25.99
2018-06-04T11:54:53.849Z,26.10
2018-06-04T11:57:22.014Z,26.06
2018-06-04T11:59:50.142Z,25.94
2018-06-04T12:02:18.127Z,25.97
2018-06-04T12:04:46.142Z,25.99
2018-06-04T12:07:14.168Z,26.01
2018-06-04T12:09:42.151Z,26.06
2018-06-04T12:12:10.255Z,26.07
2018-06-04T12:14:38.206Z,26.14
2018-06-04T12:17:06.334Z,26.21
2018-06-04T12:19:34.362Z,26.23
2018-06-04T12:22:02.430Z,26.13
2018-06-04T12:24:30.437Z,26.25
2018-06-04T12:26:58.617Z,26.20
2018-06-04T12:29:26.611Z,26.12
2018-06-04T12:31:54.724Z,26.14
2018-06-04T12:34:22.828Z,26.13
2018-06-04T12:36:50.910Z,26.17
2018-06-04T12:39:19.082Z,26.09
2018-06-04T12:41:47.182Z,26.19
2018-06-04T12:44:15.367Z,26.30
2018-06-04T12:46:43.478Z,26.50
2018-06-04T12:49:11.534Z,26.55
2018-06-04T12:51:39.758Z,26.73
2018-06-04T12:54:07.944Z,26.82
2018-06-04T12:56:36.090Z,26.80
2018-06-04T12:59:04.292Z,26.79
2018-06-04T13:01:32.427Z,27.00
2018-06-04T13:04:00.537Z,26.99
2018-06-04T13:06:28.744Z,27.09
2018-06-04T13:08:56.878Z,27.17
2018-06-04T13:11:24.934Z,27.23
2018-06-04T13:13:53.100Z,27.26
2018-06-04T13:16:21.296Z,27.38
2018-06-04T13:18:49.436Z,27.43
2018-06-04T13:21:17.615Z,27.49
2018-06-04T13:23:45.651Z,27.54
2018-06-04T13:26:13.854Z,27.57
2018-06-04T13:28:42.024Z,27.49
2018-06-04T13:31:10.217Z,27.47
2018-06-04T13:33:38.355Z,27.19
2018-06-04T13:36:06.480Z,27.15
2018-06-04T13:38:34.709Z,27.14
2018-06-04T13:41:02.711Z,27.25
2018-06-04T13:43:30.915Z,27.23
2018-06-04T13:45:59.145Z,27.43
2018-06-04T13:48:27.251Z,27.39
2018-06-04T13:50:55.414Z,27.41
2018-06-04T13:53:23.578Z,27.36
2018-06-04T13:55:51.656Z,27.29
2018-06-04T13:58:19.856Z,27.25
2018-06-04T14:00:47.879Z,27.18
2018-06-04T14:03:16.064Z,27.22
2018-06-04T14:05:44.144Z,26.89
2018-06-04T14:08:12.349Z,26.58
2018-06-04T14:10:40.520Z,26.48
2018-06-04T14:13:08.655Z,26.23
2018-06-04T14:15:36.793Z,26.26
2018-06-04T14:18:04.979Z,26.19
2018-06-04T14:20:33.051Z,26.20
2018-06-04T14:23:01.440Z,26.28
2018-06-04T14:25:29.771Z,26.20
2018-06-04T14:27:58.020Z,26.22
2018-06-04T14:30:26.265Z,26.32
2018-06-04T14:32:54.376Z,26.49
2018-06-04T14:35:22.450Z,26.34
2018-06-04T14:37:50.574Z,26.52
2018-06-04T14:40:18.635Z,26.44
2018-06-04T14:42:46.753Z,26.53
2018-06-04T14:45:14.803Z,26.51
2018-06-04T14:47:42.891Z,26.47
2018-06-04T14:50:10.953Z,26.50
2018-06-04T14:52:39.020Z,26.50
2018-06-04T14:55:07.233Z,26.38
2018-06-04T14:57:35.275Z,26.60
2018-06-04T15:00:03.739Z,26.41
2018-06-04T15:02:32.089Z,26.44
2018-06-04T15:05:00.228Z,26.47
2018-06-04T15:07:28.275Z,26.63
2018-06-04T15:09:56.396Z,26.56
2018-06-04T15:12:24.389Z,26.70
2018-06-04T15:14:52.560Z,26.75
2018-06-04T15:17:20.791Z,26.85
2018-06-04T15:19:49.072Z,27.07
2018-06-04T15:22:17.203Z,27.04
2018-06-04T15:24:45.255Z,27.11
2018-06-04T15:27:13.475Z,27.11
2018-06-04T15:29:41.713Z,27.09
2018-06-04T15:32:09.823Z,27.34
2018-06-04T15:34:38.006Z,27.25
2018-06-04T15:37:06.144Z,27.24
2018-06-04T15:39:34.318Z,27.33
2018-06-04T15:42:02.392Z,27.44
2018-06-04T15:44:30.507Z,27.40
2018-06-04T15:46:58.766Z,27.55
2018-06-04T15:49:26.889Z,27.50
2018-06-04T15:51:55.031Z,27.35
2018-06-04T15:54:23.148Z,27.19
2018-06-04T15:56:51.259Z,27.14
2018-06-04T15:59:19.321Z,27.02
2018-06-04T16:01:47.484Z,26.91
2018-06-04T16:04:15.614Z,26.72
2018-06-04T16:06:43.815Z,26.51
2018-06-04T16:09:12.266Z,26.38
2018-06-04T16:11:40.688Z,26.43
2018-06-04T16:14:09.160Z,26.24
2018-06-04T16:16:38.140Z,26.31
2018-06-04T16:19:06.633Z,26.31
2018-06-04T16:21:35.054Z,26.36
2018-06-04T16:24:03.522Z,26.31
2018-06-04T16:26:31.728Z,26.23
2018-06-04T16:28:59.974Z,26.36
2018-06-04T16:34:47.261Z,26.23
2018-06-04T16:37:15.672Z,26.00
2018-06-04T16:39:43.908Z,26.06
2018-06-04T16:42:12.088Z,25.94
2018-06-04T16:44:40.297Z,25.97
2018-06-04T16:47:08.402Z,25.92
2018-06-04T16:49:37.279Z,26.03
2018-06-04T16:52:05.390Z,26.18
2018-06-04T16:54:33.721Z,25.95
2018-06-04T16:57:01.900Z,25.91
2018-06-04T16:59:30.181Z,25.74
2018-06-04T17:01:59.064Z,25.77
2018-06-04T17:04:27.317Z,25.65
2018-06-04T17:06:58.771Z,25.51
2018-06-04T17:09:27.058Z,25.56
2018-06-04T17:11:55.071Z,25.51
2018-06-04T17:14:23.135Z,25.43
2018-06-04T17:16:51.258Z,25.56
2018-06-04T17:19:19.281Z,25.42
2018-06-04T17:21:47.388Z,24.80
2018-06-04T17:24:15.411Z,24.90
2018-06-04T17:26:43.583Z,24.88
2018-06-04T17:29:11.707Z,24.89
2018-06-04T17:31:39.915Z,24.78
2018-06-04T17:34:08.313Z,24.68
2018-06-04T17:36:36.347Z,24.49
2018-06-04T17:39:06.937Z,24.32
2018-06-04T17:41:35.512Z,24.02
2018-06-04T17:44:03.719Z,24.25
2018-06-04T17:46:32.464Z,24.21
2018-06-04T17:49:00.586Z,24.28
2018-06-04T17:51:28.896Z,24.34
2018-06-04T17:53:57.002Z,24.30
2018-06-04T17:56:25.135Z,24.24
2018-06-04T17:58:53.064Z,24.43
2018-06-04T18:01:21.192Z,24.55
2018-06-04T18:03:49.367Z,24.66
2018-06-04T18:06:17.458Z,24.71
2018-06-04T18:08:45.624Z,24.66
2018-06-04T18:11:13.699Z,24.53
2018-06-04T18:13:42.160Z,24.49
2018-06-04T18:16:10.480Z,24.58
2018-06-04T18:18:38.859Z,24.34
2018-06-04T18:21:06.904Z,24.31
2018-06-04T18:23:35.055Z,24.36
2018-06-04T18:26:03.155Z,24.38
2018-06-04T18:28:31.293Z,24.35
2018-06-04T18:30:59.467Z,24.43
2018-06-04T18:33:27.769Z,24.46
2018-06-04T18:35:55.973Z,24.52
2018-06-04T18:38:24.159Z,24.48
2018-06-04T18:40:52.366Z,24.54
2018-06-04T18:43:20.579Z,24.45
2018-06-04T18:45:49.173Z,24.34
2018-06-04T18:48:17.293Z,24.38
2018-06-04T18:50:45.506Z,24.39
2018-06-04T18:53:13.707Z,24.35
2018-06-04T18:55:41.887Z,24.26
2018-06-04T18:58:10.078Z,24.14
2018-06-04T19:00:38.228Z,23.78
2018-06-04T19:03:06.374Z,23.69
2018-06-04T19:05:34.383Z,23.49
2018-06-04T19:08:02.431Z,23.28
2018-06-04T19:10:30.661Z,23.34
2018-06-04T19:12:58.915Z,23.35
2018-06-04T19:15:27.040Z,23.30
2018-06-04T19:17:55.169Z,23.16
2018-06-04T19:20:23.365Z,22.60
2018-06-04T19:22:51.542Z,22.59
2018-06-04T19:25:19.956Z,22.57
2018-06-04T19:27:48.213Z,22.68
2018-06-04T19:30:16.143Z,22.58
2018-06-04T19:32:44.123Z,22.64
2018-06-04T19:35:12.320Z,22.78
2018-06-04T19:37:40.419Z,22.88
2018-06-04T19:40:08.602Z,22.95
2018-06-04T19:42:36.676Z,23.03
2018-06-04T19:45:04.988Z,23.09
2018-06-04T19:47:32.999Z,23.15
2018-06-04T19:50:01.099Z,23.17
2018-06-04T19:52:29.185Z,23.07
2018-06-04T19:54:57.275Z,22.91
2018-06-04T19:57:25.308Z,22.85
2018-06-04T19:59:54.092Z,22.87
2018-06-04T20:02:22.291Z,22.80
2018-06-04T20:04:50.455Z,22.84
2018-06-04T20:07:18.543Z,22.79
2018-06-04T20:09:46.585Z,22.58
2018-06-04T20:12:14.625Z,22.37
2018-06-04T20:14:42.755Z,22.12
2018-06-04T20:17:10.894Z,22.05
2018-06-04T20:19:39.003Z,21.90
2018-06-04T20:22:07.224Z,22.06
2018-06-04T20:24:35.562Z,22.28
2018-06-04T20:27:03.716Z,22.15
2018-06-04T20:29:31.729Z,22.00
2018-06-04T20:31:59.913Z,21.97
2018-06-04T20:34:28.160Z,22.09
2018-06-04T20:36:56.411Z,22.01
2018-06-04T20:39:24.509Z,22.08
2018-06-04T20:41:52.711Z,22.13
2018-06-04T20:44:20.757Z,22.18
2018-06-04T20:46:48.761Z,22.25
2018-06-04T20:49:16.923Z,22.31
2018-06-04T20:51:44.980Z,22.41
2018-06-04T20:54:13.091Z,22.49
2018-06-04T20:56:41.231Z,22.56
2018-06-04T20:59:09.383Z,22.59
2018-06-04T21:01:37.574Z,22.58
2018-06-04T21:04:05.579Z,22.60
2018-06-04T21:06:33.751Z,22.54
2018-06-04T21:09:01.828Z,22.53
2018-06-04T21:11:29.958Z,22.53
2018-06-04T21:13:58.352Z,22.52
2018-06-04T21:16:26.357Z,22.58
2018-06-04T21:18:54.600Z,22.58
2018-06-04T21:21:22.594Z,22.64
2018-06-04T21:23:50.786Z,22.58
2018-06-04T21:26:19.026Z,22.46
2018-06-04T21:28:47.193Z,22.27
2018-06-04T21:31:15.548Z,22.23
2018-06-04T21:33:43.648Z,22.09
2018-06-04T21:36:11.797Z,22.02
2018-06-04T21:38:40.129Z,22.13
2018-06-04T21:41:08.203Z,22.03
2018-06-04T21:43:36.339Z,21.98
2018-06-04T21:46:04.384Z,21.99
2018-06-04T21:48:32.530Z,21.94
2018-06-04T21:51:00.733Z,21.86
2018-06-04T21:53:28.981Z,21.89
2018-06-04T21:55:57.057Z,21.83
2018-06-04T21:58:25.153Z,21.84
2018-06-04T22:00:53.296Z,21.78
2018-06-04T22:03:21.388Z,21.72
2018-06-04T22:05:49.587Z,21.71
2018-06-04T22:08:17.805Z,21.67
2018-06-04T22:10:45.834Z,21.67
2018-06-04T22:13:14.103Z,21.66
2018-06-04T22:15:42.861Z,21.61
2018-06-04T22:18:11.105Z,21.58
2018-06-04T22:20:39.205Z,21.60
2018-06-04T22:23:07.302Z,21.60
2018-06-04T22:25:35.513Z,21.54
2018-06-04T22:28:03.755Z,21.52
2018-06-04T22:30:31.838Z,21.44
2018-06-04T22:33:00.013Z,21.38
2018-06-04T22:35:28.127Z,21.38
2018-06-04T22:37:56.254Z,21.19
2018-06-04T22:40:24.439Z,21.14
2018-06-04T22:42:52.591Z,21.08
2018-06-04T22:45:20.720Z,20.94
2018-06-04T22:47:48.896Z,20.91
2018-06-04T22:50:17.119Z,21.00
2018-06-04T22:52:45.310Z,20.92
2018-06-04T22:55:13.511Z,20.91
2018-06-04T22:57:41.595Z,20.91
2018-06-04T23:00:10.273Z,20.82
2018-06-04T23:02:38.484Z,20.83
2018-06-04T23:05:06.723Z,20.84
2018-06-04T23:07:34.893Z,20.89
2018-06-04T23:10:03.218Z,20.90
2018-06-04T23:12:31.334Z,20.87
2018-06-04T23:14:59.520Z,20.86
2018-06-04T23:17:27.661Z,20.72
2018-06-04T23:19:55.776Z,20.75
2018-06-04T23:22:23.984Z,20.75
2018-06-04T23:24:52.182Z,20.73
2018-06-04T23:27:20.395Z,20.64
2018-06-04T23:29:48.560Z,20.47
2018-06-04T23:34:51.243Z,20.48
2018-06-04T23:37:19.473Z,20.53
2018-06-04T23:39:47.611Z,20.61
2018-06-04T23:42:15.765Z,20.63
2018-06-04T23:44:43.960Z,20.58
2018-06-04T23:47:12.152Z,20.55
2018-06-04T23:49:40.369Z,20.51
2018-06-04T23:52:08.555Z,20.50
2018-06-04T23:54:36.748Z,20.51
2018-06-04T23:58:07.494Z,20.53
